Pagina principale
METAR-TAF:

METAR-TAF

Aeroporti :

Harry P. Williams Memorial Airport

Patterson, Louisiana, Stati Uniti

latitudine: 29-43N, longitudine: 091-20W, altezza: 3 m

Osservazione

Il bollettino è stato emesso 57 minuti fa, alle 13:56 UTC
Vento 16 kt da nord-est con raffiche fino a 23 kt
Temperature 12°C
Umidità 67%
Pressione 1020 hPa
Visibilità: 16.1 km
Cielo coperto ad un'altezza di 3200 ft

METAR: KPTN 181356Z AUTO 04016G23KT 10SM OVC032 12/06 A3011 RMK AO2 SLP199 T01170056

Ora: 08:53 (14:53 UTC)


TAF: mancante

Osservazioni e previsioni meteorologiche di più di 4000 aeroporti (messaggi METAR e TAF).

Le stazioni disponibili sono rappresentate dai dischi gialli e rossi sulla carta.

Puntare il mouse per vedere il nome della stazione.

Clicca sopra per visualizzare le osservazioni e previsioni meteorologiche.

Per cambiare la mappa : fare clic sui pulsanti verdi con una croce nera per ingrandire, il pulsante verde con un trattino per diminuire, o sulla freccia verde per le mappe adiacenti.


METAR-TAF: